Time;durP1;ratioP1;P1;durP2;ratioP2;P2;SDS_P1;SDS_P2;PMS_P1;PMS_P2;Temp;Humidity;BMP_temperature;BMP_pressure;BME280_temperature;BME280_humidity;BME280_pressure;Samples;Min_cycle;Max_cycle;Signal;HPM_P1;HPM_P2
2022/01/02 00:00:37;;;;;;;17.35;8.50;;;4.80;99.90;;;;;;5023482;28;20037;-70
2022/01/02 00:03:04;;;;;;;18.17;9.85;;;4.80;99.90;;;;;;5025241;28;20029;-71
2022/01/02 00:05:34;;;;;;;17.25;8.85;;;4.70;99.90;;;;;;5012634;28;20045;-70
2022/01/02 00:08:03;;;;;;;15.50;8.95;;;4.70;99.90;;;;;;5006063;28;20072;-70
2022/01/02 00:10:35;;;;;;;13.60;7.85;;;4.70;99.90;;;;;;5009620;28;20030;-70
2022/01/02 00:13:05;;;;;;;14.98;9.23;;;4.60;99.90;;;;;;5005426;28;20034;-70
2022/01/02 00:15:32;;;;;;;17.23;8.70;;;4.60;99.90;;;;;;5021283;28;20532;-70
2022/01/02 00:18:08;;;;;;;15.82;8.40;;;4.50;99.90;;;;;;5021635;28;20040;-70
2022/01/02 00:20:37;;;;;;;15.55;8.57;;;4.50;99.90;;;;;;5023567;28;20063;-70
2022/01/02 00:23:06;;;;;;;15.73;9.43;;;4.50;99.90;;;;;;5011266;28;20022;-70
2022/01/02 00:25:39;;;;;;;16.95;9.10;;;4.50;99.90;;;;;;5027472;28;20052;-70
2022/01/02 00:28:07;;;;;;;16.92;8.40;;;4.40;99.90;;;;;;5032521;28;20029;-70
2022/01/02 00:30:33;;;;;;;13.25;7.57;;;4.50;99.90;;;;;;5024848;28;20038;-70
2022/01/02 00:33:01;;;;;;;19.77;9.30;;;4.40;99.90;;;;;;5010116;28;20035;-70
2022/01/02 00:35:27;;;;;;;15.75;8.13;;;4.50;99.90;;;;;;5022859;28;20033;-70
2022/01/02 00:37:53;;;;;;;19.67;8.63;;;4.40;99.90;;;;;;5029628;28;20053;-70
2022/01/02 00:40:18;;;;;;;17.25;9.25;;;4.40;99.90;;;;;;5033157;28;20455;-70
2022/01/02 00:42:44;;;;;;;19.40;9.27;;;4.40;99.90;;;;;;5027360;28;20041;-70
2022/01/02 00:45:20;;;;;;;23.65;11.45;;;4.40;99.90;;;;;;5027199;28;20037;-70
2022/01/02 00:47:56;;;;;;;28.23;12.48;;;4.40;99.90;;;;;;5004479;28;20060;-70
2022/01/02 00:50:36;;;;;;;21.30;11.07;;;4.40;99.90;;;;;;5008635;28;20034;-70
2022/01/02 00:53:04;;;;;;;21.67;11.10;;;4.30;99.90;;;;;;5019227;28;20022;-70
2022/01/02 00:55:34;;;;;;;20.70;11.95;;;4.30;99.90;;;;;;5030358;28;20113;-70
2022/01/02 00:58:05;;;;;;;25.30;11.93;;;4.30;99.90;;;;;;5029294;28;20034;-70
2022/01/02 01:00:33;;;;;;;21.30;10.60;;;4.30;99.90;;;;;;5025708;28;20029;-70
2022/01/02 01:03:05;;;;;;;16.48;9.05;;;4.30;99.90;;;;;;5022032;28;20029;-71
2022/01/02 01:05:33;;;;;;;20.10;10.77;;;4.30;99.90;;;;;;5022499;28;20038;-70
2022/01/02 01:08:04;;;;;;;20.13;11.00;;;4.40;99.90;;;;;;5022249;28;20022;-71
2022/01/02 01:10:33;;;;;;;24.08;12.40;;;4.30;99.90;;;;;;5028153;28;20101;-70
2022/01/02 01:13:02;;;;;;;19.98;10.57;;;4.30;99.90;;;;;;5024778;28;20049;-71
2022/01/02 01:15:29;;;;;;;16.77;8.70;;;4.30;99.90;;;;;;5026349;28;20368;-71
2022/01/02 01:17:57;;;;;;;14.63;8.55;;;4.20;99.90;;;;;;5018080;28;20121;-71
2022/01/02 01:20:36;;;;;;;17.33;9.27;;;4.10;99.90;;;;;;5026769;28;20401;-69
2022/01/02 01:23:02;;;;;;;15.80;8.52;;;4.10;99.90;;;;;;5005464;28;20112;-69
2022/01/02 01:25:28;;;;;;;15.57;9.73;;;4.10;99.90;;;;;;5054197;22;20083;-71
2022/01/02 01:27:55;;;;;;;15.23;8.68;;;4.20;99.90;;;;;;5024996;28;20045;-71
2022/01/02 01:30:24;;;;;;;16.00;9.15;;;4.20;99.90;;;;;;5009692;28;20036;-71
2022/01/02 01:32:50;;;;;;;15.60;9.27;;;4.20;99.90;;;;;;5026902;28;20026;-71
2022/01/02 01:35:16;;;;;;;13.48;7.32;;;4.20;99.90;;;;;;5034020;28;20034;-72
2022/01/02 01:37:41;;;;;;;16.92;7.85;;;4.20;99.90;;;;;;5026724;28;20065;-72
2022/01/02 01:40:10;;;;;;;12.88;7.15;;;4.20;99.90;;;;;;5033628;28;20159;-71
2022/01/02 01:42:38;;;;;;;15.57;7.63;;;4.10;99.90;;;;;;5026726;28;20033;-72
2022/01/02 01:47:56;;;;;;;11.75;6.93;;;4.10;99.90;;;;;;5032011;28;20033;-72
2022/01/02 01:50:24;;;;;;;14.15;7.20;;;4.10;99.90;;;;;;5018417;28;20037;-71
2022/01/02 01:52:50;;;;;;;10.73;6.45;;;4.10;99.90;;;;;;5030525;28;20441;-72
2022/01/02 01:55:19;;;;;;;11.10;5.95;;;4.10;99.90;;;;;;5034168;28;20108;-72
2022/01/02 01:57:45;;;;;;;15.73;6.82;;;4.20;99.90;;;;;;5026694;28;20048;-71
2022/01/02 02:00:15;;;;;;;12.55;6.25;;;4.20;99.90;;;;;;5033142;28;20020;-72
2022/01/02 02:02:42;;;;;;;10.88;5.63;;;4.10;99.90;;;;;;5034570;28;20746;-72
2022/01/02 02:05:08;;;;;;;12.15;5.85;;;4.10;99.90;;;;;;5016416;28;20030;-71
2022/01/02 02:07:41;;;;;;;10.25;5.82;;;4.10;99.90;;;;;;5039947;28;20030;-72
2022/01/02 02:10:18;;;;;;;11.77;6.65;;;4.00;99.90;;;;;;5031651;28;20072;-71
2022/01/02 02:12:46;;;;;;;11.38;6.93;;;4.00;99.90;;;;;;5030465;28;20030;-72
2022/01/02 02:15:14;;;;;;;11.55;6.25;;;4.00;99.90;;;;;;5033524;28;20661;-71
2022/01/02 02:17:40;;;;;;;14.10;7.78;;;4.00;99.90;;;;;;5029733;28;20092;-71
2022/01/02 02:20:23;;;;;;;16.38;8.80;;;3.90;99.90;;;;;;5039516;28;20067;-71
2022/01/02 02:22:53;;;;;;;15.38;7.40;;;3.90;99.90;;;;;;5033391;28;20052;-71
2022/01/02 02:25:22;;;;;;;14.70;8.00;;;3.90;99.90;;;;;;5030589;28;20493;-71
2022/01/02 02:27:52;;;;;;;13.27;8.15;;;3.90;99.90;;;;;;5028464;28;20051;-71
2022/01/02 02:30:19;;;;;;;13.70;8.43;;;3.80;99.90;;;;;;5026548;28;20418;-71
2022/01/02 02:32:45;;;;;;;13.90;7.65;;;3.80;99.90;;;;;;5033527;28;20448;-72
2022/01/02 02:35:13;;;;;;;11.38;6.60;;;3.70;99.90;;;;;;5028401;28;20029;-72
2022/01/02 02:37:43;;;;;;;11.50;7.03;;;3.70;99.90;;;;;;5015092;28;20036;-71
2022/01/02 02:40:15;;;;;;;11.80;6.80;;;3.70;99.90;;;;;;5028862;28;20044;-72
2022/01/02 02:43:05;;;;;;;13.60;7.32;;;3.60;99.90;;;;;;5010314;28;20144;-71
2022/01/02 02:51:18;;;;;;;14.45;7.30;;;3.50;99.90;;;;;;5030738;28;20071;-72
2022/01/02 02:53:46;;;;;;;13.07;6.90;;;3.50;99.90;;;;;;5013736;28;20477;-72
2022/01/02 02:56:59;;;;;;;10.15;6.82;;;3.50;99.90;;;;;;5028116;28;20022;-72
2022/01/02 02:58:58;;;;;;;13.65;6.70;;;3.50;99.90;;;;;;5017346;28;20038;-74
2022/01/02 03:01:27;;;;;;;11.60;6.68;;;3.40;99.90;;;;;;5028152;28;20047;-72
2022/01/02 03:03:53;;;;;;;13.02;6.25;;;3.40;99.90;;;;;;5035270;28;20036;-72
2022/01/02 03:06:19;;;;;;;13.05;6.53;;;3.40;99.90;;;;;;5030689;28;20033;-72
2022/01/02 03:08:46;;;;;;;9.70;5.43;;;3.40;99.90;;;;;;5033091;28;20526;-72
2022/01/02 03:11:15;;;;;;;11.75;5.80;;;3.40;99.90;;;;;;5009579;28;20029;-72
2022/01/02 03:13:41;;;;;;;9.75;4.70;;;3.40;99.90;;;;;;5030398;28;20046;-72
2022/01/02 03:16:07;;;;;;;13.70;5.57;;;3.40;99.90;;;;;;5017448;28;20041;-73
2022/01/02 03:18:33;;;;;;;10.25;5.43;;;3.40;99.90;;;;;;5032535;28;20022;-72
2022/01/02 03:20:59;;;;;;;10.45;5.07;;;3.50;99.90;;;;;;5034403;28;20434;-72
2022/01/02 03:23:25;;;;;;;11.77;4.97;;;3.40;99.90;;;;;;5029191;28;20032;-72
2022/01/02 03:25:50;;;;;;;8.75;4.57;;;3.40;99.90;;;;;;5028862;28;20025;-72
2022/01/02 03:28:16;;;;;;;9.38;4.95;;;3.40;99.90;;;;;;5026394;28;20022;-72
2022/01/02 03:30:42;;;;;;;8.00;4.10;;;3.40;99.90;;;;;;5032006;28;20021;-72
2022/01/02 03:33:08;;;;;;;9.48;4.55;;;3.40;99.90;;;;;;5015793;28;20386;-72
2022/01/02 03:35:34;;;;;;;10.85;6.13;;;3.40;99.90;;;;;;5032104;28;20036;-72
2022/01/02 03:38:01;;;;;;;11.07;6.20;;;3.40;99.90;;;;;;5029270;28;20033;-72
2022/01/02 03:40:26;;;;;;;10.25;6.07;;;3.40;99.90;;;;;;5016539;28;20170;-72
2022/01/02 03:42:53;;;;;;;10.07;5.85;;;3.40;99.90;;;;;;5028508;28;20076;-72
2022/01/02 03:45:18;;;;;;;9.48;5.80;;;3.40;99.90;;;;;;5018977;28;20789;-72
2022/01/02 03:47:44;;;;;;;11.30;5.75;;;3.40;99.90;;;;;;5028633;28;20017;-71
2022/01/02 03:50:10;;;;;;;9.40;5.43;;;3.30;99.90;;;;;;5024214;28;20040;-72
2022/01/02 03:52:36;;;;;;;11.45;5.95;;;3.30;99.90;;;;;;5012961;28;20025;-72
2022/01/02 03:55:02;;;;;;;9.05;5.70;;;3.30;99.90;;;;;;5026834;28;20028;-72
2022/01/02 03:57:27;;;;;;;9.13;5.55;;;3.30;99.90;;;;;;5020009;28;20048;-72
2022/01/02 03:59:53;;;;;;;10.30;6.03;;;3.30;99.90;;;;;;5032127;28;20045;-72
2022/01/02 04:02:19;;;;;;;12.23;6.75;;;3.30;99.90;;;;;;5034876;28;20225;-72
2022/01/02 04:04:48;;;;;;;12.00;6.15;;;3.30;99.90;;;;;;5011720;28;20100;-72
2022/01/02 04:07:14;;;;;;;11.25;6.30;;;3.30;99.90;;;;;;5015221;28;20397;-72
2022/01/02 04:09:39;;;;;;;12.45;6.97;;;3.30;99.90;;;;;;5034234;28;20025;-72
2022/01/02 04:12:05;;;;;;;13.50;6.78;;;3.30;99.90;;;;;;5027169;28;20454;-72
2022/01/02 04:14:31;;;;;;;11.90;6.30;;;3.30;99.90;;;;;;5015383;28;20029;-72
2022/01/02 04:16:56;;;;;;;15.98;8.88;;;3.30;99.90;;;;;;5012667;28;20033;-72
2022/01/02 04:19:22;;;;;;;10.98;6.70;;;3.30;99.90;;;;;;5030428;28;20026;-72
2022/01/02 04:21:48;;;;;;;10.30;6.60;;;3.20;99.90;;;;;;5027871;28;20039;-73
2022/01/02 04:24:13;;;;;;;9.90;5.95;;;3.10;99.90;;;;;;5022396;28;20037;-72
2022/01/02 04:26:39;;;;;;;13.07;7.15;;;3.00;99.90;;;;;;5028015;28;20108;-72
2022/01/02 04:29:05;;;;;;;9.65;6.20;;;2.90;99.90;;;;;;5014112;28;20033;-72
2022/01/02 04:31:31;;;;;;;9.68;5.90;;;2.90;99.90;;;;;;5011989;28;20071;-72
2022/01/02 04:33:57;;;;;;;12.18;6.18;;;2.90;99.90;;;;;;5031284;28;20056;-73
2022/01/02 04:36:23;;;;;;;10.35;5.70;;;2.90;99.90;;;;;;5028328;28;20536;-72
2022/01/02 04:38:48;;;;;;;10.13;5.78;;;2.90;99.90;;;;;;5028923;28;20068;-72
2022/01/02 04:41:14;;;;;;;12.48;7.78;;;2.90;99.90;;;;;;5009086;28;20121;-72
2022/01/02 04:43:40;;;;;;;13.15;6.38;;;2.90;99.90;;;;;;5007795;28;20032;-72
2022/01/02 04:46:06;;;;;;;12.77;7.05;;;2.90;99.90;;;;;;5021293;28;20033;-72
2022/01/02 04:48:32;;;;;;;8.40;5.85;;;3.00;99.90;;;;;;5023768;28;20489;-72
2022/01/02 04:50:58;;;;;;;9.55;6.00;;;3.00;99.90;;;;;;5041350;28;20477;-72
2022/01/02 04:53:24;;;;;;;10.65;5.88;;;3.00;99.90;;;;;;5015158;28;20506;-72
2022/01/02 04:55:50;;;;;;;10.85;5.40;;;3.00;99.90;;;;;;5032183;28;20056;-72
2022/01/02 04:58:17;;;;;;;9.95;5.60;;;3.00;99.90;;;;;;5012655;28;20034;-72
2022/01/02 05:00:43;;;;;;;12.02;6.03;;;3.00;99.90;;;;;;5024067;28;20036;-72
2022/01/02 05:03:09;;;;;;;7.93;5.25;;;3.00;99.90;;;;;;5025100;28;20033;-72
2022/01/02 05:05:35;;;;;;;10.23;5.68;;;3.10;99.90;;;;;;5011220;28;20077;-72
2022/01/02 05:08:00;;;;;;;11.00;5.90;;;3.00;99.90;;;;;;5025262;28;20029;-71
2022/01/02 05:10:26;;;;;;;10.43;4.82;;;3.10;99.90;;;;;;5026634;28;20036;-71
2022/01/02 05:12:52;;;;;;;12.23;5.75;;;3.10;99.90;;;;;;5025837;28;20121;-71
2022/01/02 05:15:17;;;;;;;11.60;6.13;;;3.10;99.90;;;;;;5034312;28;20029;-72
2022/01/02 05:17:44;;;;;;;9.57;5.30;;;3.10;99.90;;;;;;5032548;28;20037;-72
2022/01/02 05:20:10;;;;;;;10.65;5.82;;;3.20;99.90;;;;;;5010852;28;20030;-72
2022/01/02 05:22:35;;;;;;;11.48;5.93;;;3.20;99.90;;;;;;5022691;28;20021;-72
2022/01/02 05:25:01;;;;;;;11.80;5.53;;;3.20;99.90;;;;;;5027680;28;20029;-72
2022/01/02 05:27:27;;;;;;;7.80;4.50;;;3.20;99.90;;;;;;5028560;28;20116;-73
2022/01/02 05:29:52;;;;;;;7.80;4.53;;;3.20;99.90;;;;;;5021115;28;20176;-72
2022/01/02 05:32:18;;;;;;;7.00;4.20;;;3.30;99.90;;;;;;5012564;28;20022;-72
2022/01/02 05:34:44;;;;;;;6.93;3.55;;;3.30;99.90;;;;;;5028761;28;20036;-72
2022/01/02 05:37:09;;;;;;;6.88;3.83;;;3.30;99.90;;;;;;5028232;28;20030;-72
2022/01/02 05:39:35;;;;;;;9.00;3.70;;;3.40;99.90;;;;;;5006043;28;23811;-72
2022/01/02 05:42:01;;;;;;;5.45;3.22;;;3.50;99.90;;;;;;5025849;28;20504;-72
2022/01/02 05:44:26;;;;;;;7.47;3.75;;;3.40;99.90;;;;;;5013399;28;20029;-72
2022/01/02 05:46:53;;;;;;;7.60;4.43;;;3.40;99.90;;;;;;5010594;28;20101;-72
2022/01/02 05:49:19;;;;;;;9.18;4.07;;;3.40;99.90;;;;;;5024090;28;20025;-72
2022/01/02 05:51:45;;;;;;;7.50;4.32;;;3.40;99.90;;;;;;5010541;28;20499;-72
2022/01/02 05:54:11;;;;;;;7.60;4.13;;;3.40;99.90;;;;;;5022273;28;20474;-72
2022/01/02 05:56:37;;;;;;;6.25;3.28;;;3.50;99.90;;;;;;5021611;28;20034;-73
2022/01/02 05:59:03;;;;;;;7.80;3.65;;;3.50;99.90;;;;;;5028850;28;20401;-72
2022/01/02 06:01:29;;;;;;;7.82;3.95;;;3.60;99.90;;;;;;5031643;28;20034;-71
2022/01/02 06:03:54;;;;;;;6.43;3.20;;;3.60;99.90;;;;;;5030720;28;20030;-72
2022/01/02 06:06:20;;;;;;;6.40;4.20;;;3.60;99.90;;;;;;5008039;28;20034;-72
2022/01/02 06:08:46;;;;;;;8.35;4.82;;;3.60;99.90;;;;;;5029796;28;20021;-72
2022/01/02 06:11:12;;;;;;;7.55;5.22;;;3.60;99.90;;;;;;5022288;28;20022;-72
2022/01/02 06:13:37;;;;;;;11.52;6.30;;;3.60;99.90;;;;;;5025501;28;20044;-72
2022/01/02 06:16:03;;;;;;;10.10;6.30;;;3.60;99.90;;;;;;5032677;28;20033;-73
2022/01/02 06:18:29;;;;;;;13.25;6.20;;;3.60;99.90;;;;;;5034849;28;20482;-72
2022/01/02 06:20:54;;;;;;;16.67;8.77;;;3.60;99.90;;;;;;5025925;28;20048;-72
2022/01/02 06:23:20;;;;;;;16.65;10.00;;;3.50;99.90;;;;;;5031788;28;20033;-72
2022/01/02 06:25:46;;;;;;;15.73;8.43;;;3.50;99.90;;;;;;5021971;28;20032;-72
2022/01/02 06:28:12;;;;;;;15.85;8.95;;;3.50;99.90;;;;;;5011700;28;20401;-72
2022/01/02 06:30:38;;;;;;;12.23;7.55;;;3.40;99.90;;;;;;5034487;28;20021;-72
2022/01/02 06:33:04;;;;;;;13.57;7.97;;;3.30;99.90;;;;;;5010744;28;20437;-72
2022/01/02 06:35:34;;;;;;;14.18;6.88;;;3.30;99.90;;;;;;5030163;28;20060;-72
2022/01/02 06:38:15;;;;;;;12.98;7.28;;;3.30;99.90;;;;;;5012254;28;20034;-72
2022/01/02 06:40:41;;;;;;;12.57;6.40;;;3.30;99.90;;;;;;5020736;28;20031;-73
2022/01/02 06:43:07;;;;;;;10.25;5.13;;;3.30;99.90;;;;;;5019929;28;20029;-71
2022/01/02 06:45:34;;;;;;;9.43;5.55;;;3.30;99.90;;;;;;5030173;28;20070;-70
2022/01/02 06:48:00;;;;;;;9.05;5.13;;;3.30;99.90;;;;;;5013078;28;20433;-71
2022/01/02 06:50:26;;;;;;;9.50;4.53;;;3.30;99.90;;;;;;5028428;28;20026;-71
2022/01/02 06:52:52;;;;;;;7.78;4.18;;;3.40;99.90;;;;;;5029109;28;20026;-72
2022/01/02 06:55:17;;;;;;;7.55;4.45;;;3.40;99.90;;;;;;5032399;28;20041;-72
2022/01/02 06:57:43;;;;;;;8.45;4.65;;;3.50;99.90;;;;;;5032438;28;20034;-72
2022/01/02 07:00:09;;;;;;;5.85;3.83;;;3.50;99.90;;;;;;5027725;28;20037;-72
2022/01/02 07:02:35;;;;;;;6.57;3.70;;;3.60;99.90;;;;;;5010975;28;20091;-71
2022/01/02 07:05:00;;;;;;;8.15;4.22;;;3.60;99.90;;;;;;5038035;28;20061;-71
2022/01/02 07:07:26;;;;;;;8.40;4.07;;;3.60;99.90;;;;;;5033826;28;20040;-71
2022/01/02 07:09:52;;;;;;;6.63;3.92;;;3.70;99.90;;;;;;5029517;28;20021;-72
2022/01/02 07:12:17;;;;;;;7.13;4.03;;;3.70;99.90;;;;;;5026567;28;20109;-71
2022/01/02 07:14:43;;;;;;;8.40;4.03;;;3.70;99.90;;;;;;5017188;28;20025;-73
2022/01/02 07:17:09;;;;;;;6.32;3.95;;;3.80;99.90;;;;;;5015876;28;20478;-72
2022/01/02 07:19:35;;;;;;;7.13;3.60;;;3.80;99.90;;;;;;5036074;28;20026;-72
2022/01/02 07:22:00;;;;;;;5.45;3.63;;;3.80;99.90;;;;;;5020043;28;20041;-72
2022/01/02 07:24:26;;;;;;;6.28;3.63;;;3.80;99.90;;;;;;5043825;22;20026;-74
2022/01/02 07:26:52;;;;;;;7.55;3.92;;;3.80;99.90;;;;;;5002628;28;20038;-73
2022/01/02 07:29:19;;;;;;;6.70;3.78;;;3.90;99.90;;;;;;4993116;28;20038;-73
2022/01/02 07:31:45;;;;;;;4.65;2.83;;;3.90;99.90;;;;;;4989805;28;20060;-73
2022/01/02 07:34:10;;;;;;;4.40;3.40;;;3.90;99.90;;;;;;4993381;28;20173;-74
2022/01/02 07:36:39;;;;;;;7.40;4.05;;;4.10;99.90;;;;;;4985567;28;20033;-74
2022/01/02 07:39:06;;;;;;;5.78;3.30;;;4.10;99.90;;;;;;4973296;28;20490;-74
2022/01/02 07:41:32;;;;;;;8.15;4.00;;;4.10;99.90;;;;;;4985828;28;20474;-74
2022/01/02 07:43:58;;;;;;;7.07;4.00;;;4.20;99.90;;;;;;4985238;28;20037;-73
2022/01/02 07:46:24;;;;;;;7.78;3.42;;;4.20;99.90;;;;;;4992622;28;20034;-73
2022/01/02 07:48:52;;;;;;;7.90;4.13;;;4.20;99.90;;;;;;4975970;28;20033;-73
2022/01/02 07:51:23;;;;;;;5.60;3.38;;;4.30;99.90;;;;;;4993108;28;20027;-74
2022/01/02 07:53:49;;;;;;;7.30;3.80;;;4.30;99.90;;;;;;4970547;28;20089;-74
2022/01/02 07:56:15;;;;;;;7.03;3.70;;;4.40;99.90;;;;;;4986989;28;20061;-74
2022/01/02 07:58:41;;;;;;;9.88;4.35;;;4.40;99.90;;;;;;4980623;28;20085;-74
2022/01/02 08:01:07;;;;;;;6.78;4.72;;;4.50;99.90;;;;;;4985490;28;20026;-75
2022/01/02 08:03:33;;;;;;;7.53;3.45;;;4.60;99.90;;;;;;4974512;28;20027;-74
2022/01/02 08:05:58;;;;;;;5.55;3.50;;;4.70;99.90;;;;;;4974426;28;20038;-74
2022/01/02 08:08:24;;;;;;;5.50;3.15;;;4.70;99.90;;;;;;4968099;28;20081;-73
2022/01/02 08:10:50;;;;;;;6.40;3.28;;;4.70;99.90;;;;;;4982872;28;20105;-74
2022/01/02 08:13:15;;;;;;;11.18;3.53;;;4.70;99.90;;;;;;5002832;28;20467;-74
2022/01/02 08:15:41;;;;;;;6.25;3.70;;;4.70;99.90;;;;;;4994162;28;20038;-74
2022/01/02 08:18:09;;;;;;;8.80;5.28;;;4.70;99.90;;;;;;4986811;28;20022;-75
2022/01/02 08:20:34;;;;;;;8.10;5.50;;;4.70;99.90;;;;;;4958069;28;20042;-74
2022/01/02 08:23:00;;;;;;;8.40;4.65;;;4.70;99.90;;;;;;4989729;28;20101;-74
2022/01/02 08:25:26;;;;;;;10.93;6.72;;;4.70;99.90;;;;;;4986771;28;20030;-74
2022/01/02 08:27:51;;;;;;;7.95;5.28;;;4.70;99.90;;;;;;4990254;28;20097;-78
2022/01/02 08:30:17;;;;;;;7.32;4.75;;;4.70;99.90;;;;;;4974164;28;20086;-73
2022/01/02 08:32:43;;;;;;;10.18;5.03;;;4.80;99.90;;;;;;5006139;28;20093;-74
2022/01/02 08:35:09;;;;;;;11.38;7.07;;;4.80;99.90;;;;;;4974825;28;20033;-73
2022/01/02 08:37:34;;;;;;;7.85;5.30;;;4.90;99.90;;;;;;4987816;28;20026;-75
2022/01/02 08:40:00;;;;;;;7.55;5.28;;;4.90;99.90;;;;;;4976029;28;20108;-74
2022/01/02 08:42:26;;;;;;;8.95;5.45;;;5.00;99.90;;;;;;4982146;28;20157;-74
2022/01/02 08:44:53;;;;;;;8.75;5.75;;;5.00;99.90;;;;;;4972551;28;20459;-73
2022/01/02 08:47:19;;;;;;;8.55;5.07;;;5.00;99.90;;;;;;4987070;28;20030;-73
2022/01/02 08:49:44;;;;;;;9.35;5.15;;;5.10;99.90;;;;;;4990998;28;20506;-72
2022/01/02 08:52:10;;;;;;;8.63;4.70;;;5.10;99.90;;;;;;4983478;28;21002;-72
2022/01/02 08:54:38;;;;;;;7.93;4.53;;;5.20;99.90;;;;;;4967799;28;20113;-72
2022/01/02 08:57:04;;;;;;;7.90;4.97;;;5.30;99.90;;;;;;4967431;28;20027;-74
2022/01/02 08:59:30;;;;;;;11.30;5.03;;;5.40;99.90;;;;;;4983806;28;20910;-73
2022/01/02 09:01:56;;;;;;;10.25;4.70;;;5.50;99.90;;;;;;4992669;28;20026;-73
2022/01/02 09:04:22;;;;;;;8.68;5.30;;;5.60;99.90;;;;;;4995708;28;20161;-73
2022/01/02 09:06:48;;;;;;;10.52;5.30;;;5.70;99.90;;;;;;4973356;28;20149;-73
2022/01/02 09:09:13;;;;;;;9.32;5.93;;;5.80;99.90;;;;;;4986059;28;20030;-73
2022/01/02 09:11:39;;;;;;;7.75;4.95;;;5.80;99.90;;;;;;4985572;28;20061;-74
2022/01/02 09:14:04;;;;;;;9.27;5.00;;;5.80;99.90;;;;;;4986849;28;20026;-74
2022/01/02 09:16:31;;;;;;;9.45;5.93;;;5.80;99.90;;;;;;4986963;28;20049;-74
2022/01/02 09:18:56;;;;;;;9.07;5.68;;;5.70;99.90;;;;;;4993492;28;20756;-74
2022/01/02 09:21:22;;;;;;;10.18;5.68;;;5.80;99.90;;;;;;4971811;28;20145;-75
2022/01/02 09:23:48;;;;;;;8.48;5.40;;;5.80;99.90;;;;;;4976473;28;20636;-75
2022/01/02 09:26:14;;;;;;;9.48;6.68;;;5.90;99.90;;;;;;4993480;28;20030;-74
2022/01/02 09:28:40;;;;;;;11.82;7.28;;;5.90;99.90;;;;;;4996700;28;20041;-74
2022/01/02 09:31:06;;;;;;;12.63;7.70;;;6.00;99.90;;;;;;4995677;28;20742;-74
2022/01/02 09:33:32;;;;;;;10.57;6.53;;;6.00;99.90;;;;;;4977872;28;20026;-74
2022/01/02 09:35:58;;;;;;;9.98;6.95;;;6.10;99.90;;;;;;4995704;28;20018;-74
2022/01/02 09:38:23;;;;;;;9.98;5.70;;;6.10;99.90;;;;;;4991879;28;20029;-74
2022/01/02 09:40:50;;;;;;;7.90;4.90;;;6.20;99.90;;;;;;4988896;28;20034;-73
2022/01/02 09:43:19;;;;;;;8.40;4.60;;;6.30;99.90;;;;;;4983475;28;20386;-74
2022/01/02 09:45:47;;;;;;;8.98;4.53;;;6.30;99.90;;;;;;4990098;28;20029;-72
2022/01/02 09:48:13;;;;;;;8.68;4.70;;;6.40;99.90;;;;;;4999060;28;20035;-72
2022/01/02 09:50:39;;;;;;;7.97;5.38;;;6.40;99.90;;;;;;4973272;28;20030;-74
2022/01/02 09:53:06;;;;;;;8.57;5.38;;;6.50;99.90;;;;;;4977390;28;20030;-74
2022/01/02 09:55:32;;;;;;;11.77;6.45;;;6.50;99.90;;;;;;4987897;28;20119;-74
2022/01/02 09:58:03;;;;;;;11.65;6.90;;;6.60;99.90;;;;;;5001623;28;20054;-74
2022/01/02 10:00:29;;;;;;;9.00;5.80;;;6.70;99.90;;;;;;4992842;28;20027;-74
2022/01/02 10:03:08;;;;;;;10.52;6.10;;;6.70;99.90;;;;;;4997620;28;20089;-74
2022/01/02 10:05:57;;;;;;;9.38;5.82;;;6.80;99.90;;;;;;4999763;28;20046;-74
2022/01/02 10:08:34;;;;;;;9.85;5.82;;;6.80;99.90;;;;;;4994667;28;20030;-74
2022/01/02 10:11:25;;;;;;;9.90;6.10;;;6.90;99.90;;;;;;4992943;28;20049;-74
2022/01/02 10:14:01;;;;;;;9.50;5.30;;;7.00;99.90;;;;;;4979507;28;20030;-73
2022/01/02 10:16:35;;;;;;;9.00;4.93;;;7.00;99.90;;;;;;5006423;28;20557;-73
2022/01/02 10:19:20;;;;;;;8.25;5.03;;;7.10;99.90;;;;;;4978061;28;20034;-74
2022/01/02 10:21:55;;;;;;;8.27;4.53;;;7.20;99.90;;;;;;4995436;28;20034;-74
2022/01/02 10:24:25;;;;;;;6.25;4.13;;;7.30;99.90;;;;;;4976850;28;20434;-74
2022/01/02 10:27:09;;;;;;;6.10;4.18;;;7.40;99.90;;;;;;5002013;28;20030;-73
2022/01/02 10:29:56;;;;;;;6.88;3.60;;;7.50;99.90;;;;;;5008871;28;20022;-74
2022/01/02 10:32:28;;;;;;;6.38;3.92;;;7.60;99.90;;;;;;4976835;28;20037;-74
2022/01/02 10:35:13;;;;;;;6.32;3.95;;;7.60;99.90;;;;;;4995766;28;20478;-74
2022/01/02 10:37:41;;;;;;;6.72;4.15;;;7.70;99.90;;;;;;4993458;28;20049;-74
2022/01/02 10:40:36;;;;;;;8.93;4.90;;;7.70;99.90;;;;;;4975961;28;20032;-74
2022/01/02 10:43:03;;;;;;;;;;;7.70;99.90;;;;;;4996959;28;20026;-74
2022/01/02 10:45:40;;;;;;;10.35;5.68;;;7.80;99.90;;;;;;4975549;28;20008;-74
2022/01/02 10:48:12;;;;;;;10.27;6.18;;;7.80;99.90;;;;;;5003962;28;20105;-74
2022/01/02 10:50:40;;;;;;;11.45;5.65;;;7.80;99.90;;;;;;4994862;28;20029;-74
2022/01/02 10:53:17;;;;;;;11.52;5.82;;;7.90;99.90;;;;;;4976092;28;20050;-74
2022/01/02 10:55:45;;;;;;;8.40;5.63;;;7.90;99.90;;;;;;4967239;28;20491;-75
2022/01/02 10:58:12;;;;;;;10.10;5.03;;;7.90;99.90;;;;;;4988222;28;20121;-75
2022/01/02 11:00:38;;;;;;;12.95;5.88;;;8.00;99.90;;;;;;4995402;28;20029;-75
2022/01/02 11:03:06;;;;;;;9.27;5.85;;;8.00;99.90;;;;;;4996908;28;20041;-75
2022/01/02 11:05:34;;;;;;;10.40;5.65;;;8.10;99.90;;;;;;4998836;28;20463;-75
2022/01/02 11:08:01;;;;;;;11.20;6.22;;;8.20;99.90;;;;;;4993387;28;20526;-75
2022/01/02 11:10:28;;;;;;;8.40;5.90;;;8.30;99.90;;;;;;4985628;28;20425;-75
2022/01/02 11:12:55;;;;;;;10.70;6.00;;;8.30;99.90;;;;;;5006964;28;20117;-74
2022/01/02 11:15:22;;;;;;;12.27;6.38;;;8.30;99.90;;;;;;4997891;28;20514;-75
2022/01/02 11:17:49;;;;;;;12.57;7.38;;;8.40;99.90;;;;;;5007449;28;20125;-72
2022/01/02 11:20:21;;;;;;;13.90;8.60;;;8.50;99.90;;;;;;5001185;28;20030;-73
2022/01/02 11:22:59;;;;;;;12.43;8.43;;;8.50;99.90;;;;;;4979615;28;20035;-73
2022/01/02 11:25:44;;;;;;;16.17;8.68;;;8.60;99.90;;;;;;4977793;28;20109;-73
2022/01/02 11:28:22;;;;;;;13.00;8.25;;;8.60;99.90;;;;;;4997566;28;20026;-73
2022/01/02 11:30:50;;;;;;;13.60;7.80;;;8.60;99.90;;;;;;4997899;28;20454;-73
2022/01/02 11:33:19;;;;;;;11.90;7.63;;;8.70;99.90;;;;;;4995694;28;20613;-73
2022/01/02 11:35:49;;;;;;;11.13;6.80;;;8.80;99.90;;;;;;4983911;28;20505;-72
2022/01/02 11:38:17;;;;;;;10.73;6.85;;;8.80;99.90;;;;;;5001903;28;20030;-73
2022/01/02 11:40:56;;;;;;;13.25;6.15;;;8.80;99.90;;;;;;4989718;28;20433;-73
2022/01/02 11:43:49;;;;;;;11.60;5.78;;;8.90;99.90;;;;;;5000618;28;20489;-73
2022/01/02 11:46:31;;;;;;;8.70;5.10;;;8.80;99.90;;;;;;4998106;28;20094;-72
2022/01/02 11:49:16;;;;;;;13.02;5.90;;;8.90;99.90;;;;;;4991432;28;20014;-73
2022/01/02 11:51:50;;;;;;;12.10;6.68;;;8.90;99.90;;;;;;4994861;28;20474;-72
2022/01/02 11:54:31;;;;;;;15.40;6.80;;;9.00;99.90;;;;;;4975595;28;20031;-72
2022/01/02 11:57:22;;;;;;;16.80;7.43;;;9.10;99.90;;;;;;4945833;28;20037;-72
2022/01/02 11:59:48;;;;;;;16.50;7.28;;;9.10;99.90;;;;;;4971175;28;20041;-73
2022/01/02 12:02:25;;;;;;;14.43;7.93;;;9.20;99.90;;;;;;4972382;28;20031;-73
2022/01/02 12:07:35;;;;;;;9.75;6.10;;;9.20;99.90;;;;;;4968077;28;20118;-73
2022/01/02 12:13:00;;;;;;;9.48;5.40;;;9.40;99.90;;;;;;4974078;28;20042;-73
2022/01/02 12:15:34;;;;;;;10.52;6.85;;;9.50;99.90;;;;;;4977736;28;20414;-73
2022/01/02 12:18:12;;;;;;;10.70;6.40;;;9.60;99.90;;;;;;4957758;28;20114;-73
2022/01/02 12:20:50;;;;;;;10.20;6.40;;;9.70;99.90;;;;;;4975533;28;20696;-73
2022/01/02 12:23:33;;;;;;;10.52;5.57;;;9.80;99.90;;;;;;4953613;28;20065;-73
2022/01/02 12:26:08;;;;;;;12.57;5.75;;;9.80;99.90;;;;;;4974546;28;20125;-73
2022/01/02 12:28:45;;;;;;;8.18;4.47;;;9.90;99.90;;;;;;4966468;28;20090;-74
2022/01/02 12:31:15;;;;;;;9.25;5.78;;;9.90;99.90;;;;;;4971566;28;20471;-73
2022/01/02 12:33:42;;;;;;;12.05;5.78;;;10.00;99.90;;;;;;4963410;28;20069;-75
2022/01/02 12:36:21;;;;;;;14.57;6.43;;;10.10;99.90;;;;;;4966821;28;22195;-75
2022/01/02 12:38:51;;;;;;;14.88;5.18;;;10.30;99.90;;;;;;4978842;28;20141;-75
2022/01/02 12:41:22;;;;;;;7.43;4.28;;;10.30;99.90;;;;;;4973369;28;20040;-75
2022/01/02 12:43:54;;;;;;;6.63;4.15;;;10.30;99.90;;;;;;4969584;28;20609;-75
2022/01/02 12:46:52;;;;;;;8.35;4.05;;;10.40;99.90;;;;;;4958731;28;20090;-75
2022/01/02 12:49:23;;;;;;;6.72;4.40;;;10.40;99.90;;;;;;4964310;28;20541;-75
2022/01/02 12:51:51;;;;;;;12.25;4.47;;;10.40;99.90;;;;;;4971777;28;20031;-76
2022/01/02 12:54:21;;;;;;;7.32;3.70;;;10.50;99.90;;;;;;4959932;28;20487;-76
2022/01/02 12:56:51;;;;;;;8.07;3.38;;;10.50;99.90;;;;;;4971018;28;20516;-76
2022/01/02 12:59:22;;;;;;;7.13;3.42;;;10.60;99.90;;;;;;4969383;28;20122;-76
2022/01/02 13:02:19;;;;;;;6.53;3.65;;;10.60;99.90;;;;;;4964780;28;20043;-76
2022/01/02 13:04:46;;;;;;;7.60;3.60;;;10.60;99.90;;;;;;4968880;28;20035;-76
2022/01/02 13:07:14;;;;;;;8.52;3.58;;;10.70;99.90;;;;;;4978012;28;20028;-76
2022/01/02 13:09:46;;;;;;;4.63;2.78;;;10.80;99.90;;;;;;4950651;28;20113;-76
2022/01/02 13:12:20;;;;;;;5.18;2.65;;;10.90;99.90;;;;;;4978848;28;20431;-75